createdAt,value
2019-05-21T00:00:57.372Z,39.67
2019-05-21T00:03:28.674Z,40.00
2019-05-21T00:06:00.380Z,38.50
2019-05-21T00:08:31.894Z,37.67
2019-05-21T00:11:03.210Z,35.43
2019-05-21T00:13:34.573Z,36.93
2019-05-21T00:16:06.218Z,38.40
2019-05-21T00:18:37.434Z,38.73
2019-05-21T00:21:08.747Z,37.37
2019-05-21T00:23:40.010Z,36.87
2019-05-21T00:26:11.453Z,39.90
2019-05-21T00:28:40.678Z,39.50
2019-05-21T00:32:06.786Z,40.60
2019-05-21T00:35:45.782Z,32.83
2019-05-21T00:39:11.203Z,33.20
2019-05-21T00:42:02.439Z,32.63
2019-05-21T00:44:38.543Z,35.80
2019-05-21T00:47:12.470Z,38.03
2019-05-21T00:49:43.874Z,39.37
2019-05-21T00:52:15.191Z,38.40
2019-05-21T00:54:46.522Z,35.53
2019-05-21T00:57:18.142Z,28.90
2019-05-21T00:59:49.575Z,27.20
2019-05-21T01:02:21.248Z,25.83
2019-05-21T01:05:00.675Z,28.43
2019-05-21T01:07:25.459Z,29.53
2019-05-21T01:09:56.753Z,29.63
2019-05-21T01:12:28.026Z,34.07
2019-05-21T01:14:59.559Z,36.40
2019-05-21T01:17:31.195Z,39.17
2019-05-21T01:20:02.533Z,43.70
2019-05-21T01:22:33.783Z,41.97
2019-05-21T01:25:05.290Z,43.23
2019-05-21T01:27:36.611Z,42.57
2019-05-21T01:30:08.166Z,41.70
2019-05-21T01:32:39.905Z,39.93
2019-05-21T01:35:17.305Z,37.97
2019-05-21T01:37:44.766Z,39.67
2019-05-21T01:40:16.096Z,39.17
2019-05-21T01:42:47.306Z,40.40
2019-05-21T01:45:18.861Z,38.27
2019-05-21T01:47:50.149Z,40.33
2019-05-21T01:50:21.804Z,40.10
2019-05-21T01:52:53.109Z,40.80
2019-05-21T01:55:24.353Z,42.17
2019-05-21T01:57:56.116Z,42.67
2019-05-21T02:00:27.500Z,39.47
2019-05-21T02:02:58.888Z,39.67
2019-05-21T02:05:33.418Z,40.13
2019-05-21T02:08:03.829Z,40.53
2019-05-21T02:10:35.195Z,42.17
2019-05-21T02:13:06.785Z,42.23
2019-05-21T02:15:38.241Z,40.60
2019-05-21T02:18:09.703Z,41.10
2019-05-21T02:20:40.970Z,38.63
2019-05-21T02:23:12.351Z,39.47
2019-05-21T02:25:44.252Z,38.37
2019-05-21T02:28:15.707Z,39.03
2019-05-21T02:30:47.046Z,37.43
2019-05-21T02:33:19.098Z,38.40
2019-05-21T02:35:54.612Z,39.17
2019-05-21T02:38:23.547Z,39.77
2019-05-21T02:40:54.834Z,42.33
2019-05-21T02:43:26.235Z,45.50
2019-05-21T02:45:57.629Z,45.90
2019-05-21T02:48:29.024Z,46.03
2019-05-21T02:51:00.345Z,42.03
2019-05-21T02:53:34.335Z,39.63
2019-05-21T02:56:04.685Z,43.90
2019-05-21T02:58:36.020Z,41.90
2019-05-21T03:01:35.333Z,40.07
2019-05-21T03:04:06.761Z,40.27
2019-05-21T03:06:38.441Z,38.47
2019-05-21T03:09:10.165Z,39.07
2019-05-21T03:11:41.541Z,38.80
2019-05-21T03:14:12.919Z,39.37
2019-05-21T03:16:44.371Z,39.97
2019-05-21T03:19:16.631Z,42.50
2019-05-21T03:21:48.975Z,44.03
2019-05-21T03:24:20.214Z,44.80
2019-05-21T03:26:51.537Z,41.53
2019-05-21T03:29:22.765Z,43.23
2019-05-21T03:31:54.440Z,41.50
2019-05-21T03:34:25.778Z,38.77
2019-05-21T03:36:57.215Z,36.90
2019-05-21T03:39:28.686Z,39.80
2019-05-21T03:42:00.045Z,37.53
2019-05-21T03:44:31.357Z,38.10
2019-05-21T03:47:03.060Z,35.90
2019-05-21T03:49:34.378Z,37.40
2019-05-21T03:52:05.791Z,37.93
2019-05-21T03:54:37.170Z,38.03
2019-05-21T03:57:08.486Z,37.40
2019-05-21T03:59:39.870Z,35.40
2019-05-21T04:02:11.269Z,35.53
2019-05-21T04:04:42.683Z,34.00
2019-05-21T04:07:14.410Z,35.93
2019-05-21T04:09:46.223Z,33.70
2019-05-21T04:12:17.521Z,33.73
2019-05-21T04:14:52.779Z,32.47
2019-05-21T04:17:36.907Z,32.27
2019-05-21T04:20:09.418Z,29.17
2019-05-21T04:22:52.755Z,31.33
2019-05-21T04:25:25.201Z,30.07
2019-05-21T04:27:56.759Z,30.33
2019-05-21T04:30:28.117Z,28.17
2019-05-21T04:32:59.503Z,26.80
2019-05-21T04:35:31.199Z,25.87
2019-05-21T04:38:02.996Z,27.50
2019-05-21T04:40:34.381Z,25.30
2019-05-21T04:43:05.738Z,23.90
2019-05-21T04:45:37.154Z,23.37
2019-05-21T04:48:08.418Z,22.90
2019-05-21T04:50:39.855Z,24.83
2019-05-21T04:53:11.222Z,24.73
2019-05-21T04:55:42.506Z,25.37
2019-05-21T04:58:13.808Z,24.23
2019-05-21T05:00:45.442Z,24.90
2019-05-21T05:03:17.098Z,25.97
2019-05-21T05:05:48.415Z,24.37
2019-05-21T05:08:19.735Z,25.73
2019-05-21T05:10:51.004Z,29.90
2019-05-21T05:13:22.213Z,29.33
2019-05-21T05:15:53.325Z,29.63
2019-05-21T05:18:24.522Z,29.73
2019-05-21T05:20:56.190Z,27.00
2019-05-21T05:23:27.464Z,28.47
2019-05-21T05:25:58.683Z,28.17
2019-05-21T05:28:29.890Z,31.87
2019-05-21T05:31:01.542Z,33.23
2019-05-21T05:33:32.819Z,34.37
2019-05-21T05:36:04.094Z,37.97
2019-05-21T05:38:35.373Z,37.63
2019-05-21T05:41:06.854Z,37.03
2019-05-21T05:43:37.967Z,37.27
2019-05-21T05:46:09.138Z,37.43
2019-05-21T05:48:48.666Z,37.77
2019-05-21T05:51:20.039Z,39.47
2019-05-21T05:53:57.888Z,37.07
2019-05-21T05:56:30.177Z,37.77
2019-05-21T05:59:01.544Z,36.70
2019-05-21T06:01:34.222Z,38.30
2019-05-21T06:04:05.703Z,38.73
2019-05-21T06:06:37.340Z,39.03
2019-05-21T06:09:08.986Z,39.57
2019-05-21T06:11:40.235Z,41.27
2019-05-21T06:14:11.473Z,39.40
2019-05-21T06:16:43.098Z,37.57
2019-05-21T06:19:14.441Z,38.23
2019-05-21T06:21:45.560Z,39.47
2019-05-21T06:24:16.845Z,38.03
2019-05-21T06:26:48.010Z,37.50
2019-05-21T06:29:19.326Z,35.37
2019-05-21T06:31:50.447Z,34.87
2019-05-21T06:34:21.770Z,33.43
2019-05-21T06:36:53.031Z,32.37
2019-05-21T06:39:24.368Z,32.77
2019-05-21T06:41:56.010Z,32.00
2019-05-21T06:44:27.305Z,32.57
2019-05-21T06:46:58.534Z,31.30
2019-05-21T06:49:29.726Z,30.03
2019-05-21T06:52:00.983Z,27.47
2019-05-21T06:54:32.241Z,26.70
2019-05-21T06:57:03.897Z,24.80
2019-05-21T06:59:35.261Z,24.03
2019-05-21T07:02:06.630Z,25.80
2019-05-21T07:04:37.999Z,26.10
2019-05-21T07:07:09.224Z,22.57
2019-05-21T07:09:40.861Z,23.23
2019-05-21T07:12:12.418Z,25.90
2019-05-21T07:14:43.914Z,25.53
2019-05-21T07:17:15.202Z,24.13
2019-05-21T07:19:46.489Z,25.63
2019-05-21T07:22:17.859Z,27.63
2019-05-21T07:24:48.999Z,28.10
2019-05-21T07:27:20.355Z,29.60
2019-05-21T07:29:51.626Z,28.63
2019-05-21T07:32:22.866Z,30.07
2019-05-21T07:34:54.151Z,30.57
2019-05-21T07:37:25.339Z,31.30
2019-05-21T07:39:57.034Z,32.87
2019-05-21T07:42:28.255Z,33.20
2019-05-21T07:45:00.265Z,31.67
2019-05-21T07:47:31.512Z,31.97
2019-05-21T07:50:03.268Z,31.97
2019-05-21T07:52:34.653Z,29.90
2019-05-21T07:55:06.579Z,31.50
2019-05-21T07:57:37.841Z,30.50
2019-05-21T08:00:11.586Z,30.67
2019-05-21T08:02:42.769Z,29.83
2019-05-21T08:05:14.229Z,27.63
2019-05-21T08:07:45.493Z,28.73
2019-05-21T08:10:17.270Z,25.10
2019-05-21T08:12:48.551Z,25.13
2019-05-21T08:15:19.895Z,26.23
2019-05-21T08:17:51.105Z,22.57
2019-05-21T08:20:22.804Z,23.47
2019-05-21T08:22:53.970Z,28.67
2019-05-21T08:25:25.632Z,28.77
2019-05-21T08:27:57.132Z,28.13
2019-05-21T08:30:28.496Z,28.73
2019-05-21T08:32:59.593Z,29.13
2019-05-21T08:35:31.274Z,29.13
2019-05-21T08:38:06.472Z,29.27
2019-05-21T08:40:35.952Z,26.70
2019-05-21T08:43:06.465Z,26.33
2019-05-21T08:45:55.526Z,26.23
2019-05-21T08:48:27.331Z,27.80
2019-05-21T08:50:58.655Z,29.13
2019-05-21T08:53:29.921Z,27.20
2019-05-21T08:56:01.207Z,27.97
2019-05-21T08:58:32.473Z,28.20
2019-05-21T09:01:03.993Z,27.97
2019-05-21T09:03:35.975Z,26.80
2019-05-21T09:06:07.402Z,26.70
2019-05-21T09:08:39.087Z,26.37
2019-05-21T09:11:10.379Z,28.17
2019-05-21T09:13:41.688Z,26.40
2019-05-21T09:16:13.619Z,26.37
2019-05-21T09:18:44.973Z,26.03
2019-05-21T09:21:16.245Z,25.80
2019-05-21T09:23:47.668Z,21.00
2019-05-21T09:26:19.037Z,23.20
2019-05-21T09:28:50.336Z,25.23
2019-05-21T09:31:21.648Z,25.50
2019-05-21T09:33:52.866Z,25.70
2019-05-21T09:36:25.330Z,25.23
2019-05-21T09:38:57.153Z,25.67
2019-05-21T09:41:28.485Z,23.77
2019-05-21T09:44:00.043Z,22.00
2019-05-21T09:46:31.419Z,21.63
2019-05-21T09:49:02.794Z,20.83
2019-05-21T09:51:34.025Z,19.93
2019-05-21T09:54:05.505Z,22.20
2019-05-21T09:56:37.174Z,24.33
2019-05-21T09:59:26.416Z,24.47
2019-05-21T10:02:01.259Z,26.30
2019-05-21T10:04:33.355Z,27.73
2019-05-21T10:07:04.822Z,28.70
2019-05-21T10:09:36.158Z,29.83
2019-05-21T10:12:07.962Z,29.73
2019-05-21T10:14:39.582Z,31.00
2019-05-21T10:17:10.793Z,28.20
2019-05-21T10:19:42.473Z,27.80
2019-05-21T10:22:13.929Z,28.00
2019-05-21T10:24:45.332Z,26.83
2019-05-21T10:27:16.982Z,24.37
2019-05-21T10:29:48.292Z,23.43
2019-05-21T10:32:19.586Z,23.83
2019-05-21T10:34:50.899Z,23.63
2019-05-21T10:37:22.487Z,22.73
2019-05-21T10:39:54.022Z,22.70
2019-05-21T10:42:25.315Z,20.80
2019-05-21T10:44:56.717Z,22.33
2019-05-21T10:47:28.096Z,22.20
2019-05-21T10:49:59.408Z,18.10
2019-05-21T10:52:30.914Z,22.33
2019-05-21T10:55:02.096Z,21.63
2019-05-21T10:57:33.396Z,21.27
2019-05-21T11:00:08.184Z,21.57
2019-05-21T11:02:51.324Z,20.80
2019-05-21T11:05:37.390Z,19.80
2019-05-21T11:08:25.529Z,20.27
2019-05-21T11:10:42.654Z,18.80
2019-05-21T11:13:14.008Z,21.53
2019-05-21T11:15:45.317Z,19.57
2019-05-21T11:18:16.725Z,22.00
2019-05-21T11:20:48.392Z,22.10
2019-05-21T11:23:19.641Z,24.67
2019-05-21T11:25:51.171Z,24.93
2019-05-21T11:28:22.518Z,26.13
2019-05-21T11:30:53.780Z,23.87
2019-05-21T11:33:25.398Z,24.20
2019-05-21T11:35:56.938Z,23.50
2019-05-21T11:38:39.530Z,25.97
2019-05-21T11:41:01.573Z,28.27
2019-05-21T11:43:32.851Z,27.53
2019-05-21T11:46:04.080Z,26.70
2019-05-21T11:48:35.326Z,28.23
2019-05-21T11:51:06.723Z,24.33
2019-05-21T11:53:37.934Z,23.33
2019-05-21T11:56:09.168Z,23.97
2019-05-21T11:58:40.451Z,23.97
2019-05-21T12:01:11.801Z,24.33
2019-05-21T12:03:43.237Z,26.43
2019-05-21T12:06:14.479Z,26.97
2019-05-21T12:08:56.222Z,25.60
2019-05-21T12:11:19.030Z,25.00
2019-05-21T12:13:50.281Z,25.07
2019-05-21T12:16:21.544Z,26.37
2019-05-21T12:18:52.828Z,27.87
2019-05-21T12:21:24.134Z,27.53
2019-05-21T12:23:55.256Z,27.43
2019-05-21T12:26:26.508Z,27.03
2019-05-21T12:28:58.046Z,26.77
2019-05-21T12:31:29.850Z,26.67
2019-05-21T12:34:01.370Z,24.90
2019-05-21T12:36:32.567Z,24.60
2019-05-21T12:39:13.728Z,24.20
2019-05-21T12:41:37.503Z,22.80
2019-05-21T12:44:08.852Z,23.33
2019-05-21T12:46:40.187Z,26.60
2019-05-21T12:49:11.447Z,25.63
2019-05-21T12:51:43.154Z,28.10
2019-05-21T12:54:14.436Z,28.90
2019-05-21T12:56:45.729Z,26.87
2019-05-21T12:59:16.924Z,25.90
2019-05-21T13:01:48.196Z,26.47
2019-05-21T13:04:19.609Z,26.40
2019-05-21T13:06:50.984Z,26.07
2019-05-21T13:09:32.246Z,27.97
2019-05-21T13:11:55.276Z,29.07
2019-05-21T13:14:26.656Z,27.13
2019-05-21T13:16:58.117Z,25.17
2019-05-21T13:19:29.504Z,25.33
2019-05-21T13:22:00.851Z,25.77
2019-05-21T13:24:32.501Z,26.40
2019-05-21T13:27:03.862Z,27.93
2019-05-21T13:29:35.510Z,28.60
2019-05-21T13:32:07.006Z,27.87
2019-05-21T13:34:38.381Z,29.73
2019-05-21T13:37:09.709Z,32.10
2019-05-21T13:39:50.225Z,31.63
2019-05-21T13:42:14.478Z,31.60
2019-05-21T13:44:45.682Z,31.57
2019-05-21T13:47:16.956Z,33.07
2019-05-21T13:49:48.248Z,31.83
2019-05-21T13:52:19.706Z,33.27
2019-05-21T13:54:51.052Z,32.10
2019-05-21T13:57:22.376Z,30.53
2019-05-21T13:59:53.629Z,30.57
2019-05-21T14:02:24.983Z,29.10
2019-05-21T14:04:57.761Z,30.03
2019-05-21T14:07:29.683Z,31.70
2019-05-21T14:10:14.338Z,31.90
2019-05-21T14:12:35.752Z,32.03
2019-05-21T14:15:07.728Z,34.70
2019-05-21T14:17:39.302Z,34.80
2019-05-21T14:20:11.347Z,35.73
2019-05-21T14:22:42.549Z,35.17
2019-05-21T14:25:13.904Z,34.30
2019-05-21T14:27:45.478Z,32.63
2019-05-21T14:30:17.381Z,35.67
2019-05-21T14:32:48.789Z,33.07
2019-05-21T14:35:20.060Z,32.33
2019-05-21T14:37:51.664Z,33.20
2019-05-21T14:40:31.793Z,32.53
2019-05-21T14:43:00.414Z,32.63
2019-05-21T14:45:34.179Z,28.43
2019-05-21T14:48:05.232Z,27.60
2019-05-21T14:50:36.584Z,28.37
2019-05-21T14:53:08.247Z,25.87
2019-05-21T14:55:39.965Z,28.97
2019-05-21T14:58:11.134Z,25.13
2019-05-21T15:00:42.517Z,28.77
2019-05-21T15:03:24.774Z,26.60
2019-05-21T15:05:47.066Z,30.27
2019-05-21T15:08:18.165Z,28.17
2019-05-21T15:10:49.860Z,29.33
2019-05-21T15:13:21.080Z,27.80
2019-05-21T15:15:52.618Z,29.10
2019-05-21T15:18:23.893Z,27.67
2019-05-21T15:21:03.196Z,28.23
2019-05-21T15:23:34.354Z,29.07
2019-05-21T15:26:05.783Z,29.87
2019-05-21T15:28:36.978Z,29.37
2019-05-21T15:31:08.684Z,30.17
2019-05-21T15:33:39.849Z,30.70
2019-05-21T15:36:11.087Z,31.27
2019-05-21T15:38:50.313Z,31.90
2019-05-21T15:41:15.119Z,32.87
2019-05-21T15:43:46.384Z,33.63
2019-05-21T15:46:17.730Z,33.60
2019-05-21T15:48:49.063Z,34.10
2019-05-21T15:51:20.507Z,33.37
2019-05-21T15:53:51.720Z,32.93
2019-05-21T15:56:22.915Z,32.50
2019-05-21T15:58:54.235Z,33.60
2019-05-21T16:01:25.766Z,34.07
2019-05-21T16:03:57.010Z,33.63
2019-05-21T16:06:28.379Z,32.30
2019-05-21T16:08:59.580Z,33.60
2019-05-21T16:11:30.773Z,33.70
2019-05-21T16:14:02.030Z,31.33
2019-05-21T16:16:33.378Z,31.43
2019-05-21T16:19:04.655Z,35.23
2019-05-21T16:21:36.224Z,34.23
2019-05-21T16:24:07.522Z,34.90
2019-05-21T16:26:39.516Z,34.20
2019-05-21T16:29:11.372Z,36.17
2019-05-21T16:31:42.687Z,35.80
2019-05-21T16:34:14.531Z,35.10
2019-05-21T16:36:45.985Z,36.43
2019-05-21T16:39:19.327Z,35.30
2019-05-21T16:41:50.594Z,36.10
2019-05-21T16:44:22.140Z,36.73
2019-05-21T16:46:53.411Z,36.63
2019-05-21T16:49:24.675Z,36.43
2019-05-21T16:51:56.398Z,36.83
2019-05-21T16:54:27.761Z,39.00
2019-05-21T16:56:58.992Z,38.20
2019-05-21T16:59:30.286Z,37.77
2019-05-21T17:02:01.654Z,40.23
2019-05-21T17:04:33.401Z,38.63
2019-05-21T17:07:04.897Z,38.93
2019-05-21T17:09:36.215Z,39.63
2019-05-21T17:12:08.012Z,37.30
2019-05-21T17:14:39.687Z,37.23
2019-05-21T17:17:11.123Z,41.17
2019-05-21T17:19:42.583Z,35.93
2019-05-21T17:22:13.969Z,36.97
2019-05-21T17:24:45.810Z,39.60
2019-05-21T17:27:17.246Z,39.97
2019-05-21T17:29:48.995Z,42.20
2019-05-21T17:32:20.580Z,39.03
2019-05-21T17:34:52.345Z,39.23
2019-05-21T17:37:23.748Z,39.13
2019-05-21T17:39:55.050Z,39.90
2019-05-21T17:42:26.480Z,38.37
2019-05-21T17:44:58.369Z,37.77
2019-05-21T17:47:29.828Z,35.70
2019-05-21T17:50:01.222Z,38.27
2019-05-21T17:52:32.736Z,38.93
2019-05-21T17:55:04.362Z,37.53
2019-05-21T17:57:35.818Z,36.30
2019-05-21T18:00:09.001Z,34.97
2019-05-21T18:02:40.917Z,36.80
2019-05-21T18:05:13.004Z,37.40
2019-05-21T18:07:45.304Z,36.50
2019-05-21T18:10:18.877Z,35.87
2019-05-21T18:12:50.748Z,36.03
2019-05-21T18:15:22.422Z,35.83
2019-05-21T18:17:53.822Z,36.93
2019-05-21T18:20:25.226Z,36.30
2019-05-21T18:22:56.479Z,35.67
2019-05-21T18:25:27.749Z,35.53
2019-05-21T18:27:59.307Z,35.43
2019-05-21T18:30:30.740Z,35.57
2019-05-21T18:33:10.220Z,35.77
2019-05-21T18:35:45.217Z,37.13
2019-05-21T18:38:15.322Z,36.30
2019-05-21T18:40:46.999Z,33.73
2019-05-21T18:43:19.171Z,35.40
2019-05-21T18:45:50.935Z,32.97
2019-05-21T18:48:22.124Z,33.60
2019-05-21T18:50:53.665Z,31.73
2019-05-21T18:53:24.952Z,33.43
2019-05-21T18:55:56.483Z,32.57
2019-05-21T18:58:28.616Z,31.73
2019-05-21T19:00:59.942Z,31.30
2019-05-21T19:03:31.230Z,33.37
2019-05-21T19:06:02.556Z,33.50
2019-05-21T19:08:34.202Z,33.53
2019-05-21T19:11:05.523Z,32.50
2019-05-21T19:13:36.925Z,31.80
2019-05-21T19:16:08.695Z,30.83
2019-05-21T19:18:39.998Z,31.13
2019-05-21T19:21:11.634Z,32.83
2019-05-21T19:23:42.888Z,30.70
2019-05-21T19:26:14.436Z,30.63
2019-05-21T19:28:46.177Z,30.47
2019-05-21T19:31:17.379Z,28.60
2019-05-21T19:33:48.952Z,30.40
2019-05-21T19:36:20.141Z,28.97
2019-05-21T19:38:51.543Z,28.60
2019-05-21T19:41:22.813Z,30.20
2019-05-21T19:43:54.113Z,28.83
2019-05-21T19:46:25.508Z,29.27
2019-05-21T19:48:57.014Z,28.87
2019-05-21T19:51:28.268Z,30.67
2019-05-21T19:53:59.544Z,29.57
2019-05-21T19:56:31.013Z,30.17
2019-05-21T19:59:02.469Z,28.73
2019-05-21T20:01:34.028Z,28.40
2019-05-21T20:04:06.835Z,26.60
2019-05-21T20:06:38.520Z,28.30
2019-05-21T20:09:14.805Z,25.97
2019-05-21T20:11:46.259Z,25.73
2019-05-21T20:14:17.683Z,26.27
2019-05-21T20:16:49.198Z,23.77
2019-05-21T20:19:23.093Z,24.50
2019-05-21T20:21:55.069Z,24.30
2019-05-21T20:24:26.652Z,22.30
2019-05-21T20:26:58.994Z,22.30
2019-05-21T20:29:31.245Z,22.23
2019-05-21T20:32:02.875Z,23.43
2019-05-21T20:34:34.082Z,22.53
2019-05-21T20:37:07.843Z,22.23
2019-05-21T20:39:41.576Z,23.83
2019-05-21T20:42:17.671Z,24.07
2019-05-21T20:44:48.080Z,22.90
2019-05-21T20:47:19.579Z,22.67
2019-05-21T20:49:51.090Z,23.03
2019-05-21T20:52:22.693Z,19.97
2019-05-21T20:54:56.489Z,25.60
2019-05-21T20:57:29.269Z,20.77
2019-05-21T21:00:01.082Z,20.43
2019-05-21T21:02:33.651Z,20.17
2019-05-21T21:05:06.383Z,20.87
2019-05-21T21:07:39.103Z,18.97
2019-05-21T21:10:12.299Z,19.30
2019-05-21T21:12:44.721Z,19.73
2019-05-21T21:15:17.989Z,19.33
2019-05-21T21:17:49.568Z,19.97
2019-05-21T21:20:21.025Z,84.00
2019-05-21T21:22:52.219Z,34.83
2019-05-21T21:25:24.967Z,17.93
2019-05-21T21:27:57.060Z,26.67
2019-05-21T21:30:29.262Z,24.40
2019-05-21T21:33:01.007Z,18.03
2019-05-21T21:35:32.604Z,15.30
2019-05-21T21:38:08.028Z,14.90
2019-05-21T21:40:39.977Z,15.23
2019-05-21T21:43:11.571Z,16.33
2019-05-21T21:45:43.399Z,16.53
2019-05-21T21:48:16.251Z,15.93
2019-05-21T21:50:48.768Z,16.93
2019-05-21T21:53:21.045Z,18.07
2019-05-21T21:55:53.858Z,18.27
2019-05-21T21:58:25.467Z,18.50
2019-05-21T22:01:25.732Z,19.73
2019-05-21T22:04:02.574Z,21.60
2019-05-21T22:06:36.552Z,21.63
2019-05-21T22:09:14.288Z,21.70
2019-05-21T22:11:47.351Z,24.17
2019-05-21T22:14:19.172Z,21.80
2019-05-21T22:16:51.912Z,24.10
2019-05-21T22:19:24.572Z,23.40
2019-05-21T22:21:56.468Z,23.30
2019-05-21T22:24:28.707Z,23.67
2019-05-21T22:27:00.251Z,23.70
2019-05-21T22:29:32.175Z,24.60
2019-05-21T22:32:04.455Z,25.60
2019-05-21T22:34:35.935Z,25.60
2019-05-21T22:37:09.022Z,26.10
2019-05-21T22:39:41.768Z,26.70
2019-05-21T22:42:13.138Z,28.40
2019-05-21T22:44:44.903Z,29.53
2019-05-21T22:47:16.351Z,29.90
2019-05-21T22:49:47.767Z,30.43
2019-05-21T22:52:18.940Z,28.73
2019-05-21T22:54:50.158Z,29.73
2019-05-21T22:57:21.504Z,30.77
2019-05-21T22:59:52.944Z,31.07
2019-05-21T23:02:28.701Z,31.43
2019-05-21T23:04:59.809Z,33.43
2019-05-21T23:07:31.255Z,33.40
2019-05-21T23:10:02.782Z,34.30
2019-05-21T23:12:34.637Z,35.20
2019-05-21T23:15:06.816Z,36.37
2019-05-21T23:17:38.219Z,35.80
2019-05-21T23:20:12.466Z,38.30
2019-05-21T23:22:47.417Z,38.50
2019-05-21T23:25:20.434Z,39.33
2019-05-21T23:27:52.233Z,37.93
2019-05-21T23:30:23.504Z,39.07
2019-05-21T23:32:55.579Z,38.83
2019-05-21T23:35:27.942Z,39.70
2019-05-21T23:38:01.286Z,39.87
2019-05-21T23:40:32.736Z,38.93
2019-05-21T23:43:04.000Z,41.17
2019-05-21T23:45:35.516Z,39.03
2019-05-21T23:48:11.220Z,40.27
2019-05-21T23:50:42.627Z,37.70
2019-05-21T23:53:14.226Z,38.73
2019-05-21T23:55:45.465Z,36.20
2019-05-21T23:58:17.897Z,35.10
